Time;durP1;ratioP1;P1;durP2;ratioP2;P2;SDS_P1;SDS_P2;PMS_P1;PMS_P2;Temp;Humidity;BMP_temperature;BMP_pressure;BME280_temperature;BME280_humidity;BME280_pressure;Samples;Min_cycle;Max_cycle;Signal;HPM_P1;HPM_P2
2022/02/28 00:02:26;;;;;;;4.90;4.13;;;0.20;99.90;;;;;;5012440;28;20310;-70
2022/02/28 00:04:52;;;;;;;5.33;4.40;;;0.30;99.90;;;;;;5013102;28;20435;-69
2022/02/28 00:07:18;;;;;;;9.80;5.30;;;0.30;99.90;;;;;;5012013;28;20438;-69
2022/02/28 00:09:44;;;;;;;7.17;4.87;;;0.20;99.90;;;;;;5012184;28;20231;-70
2022/02/28 00:12:09;;;;;;;4.03;3.67;;;0.10;99.90;;;;;;5011780;28;20498;-69
2022/02/28 00:14:35;;;;;;;4.33;3.60;;;0.10;99.90;;;;;;5011749;28;20199;-68
2022/02/28 00:17:00;;;;;;;5.27;4.77;;;0.10;99.90;;;;;;5011798;28;20277;-69
2022/02/28 00:19:26;;;;;;;4.50;3.30;;;0.10;99.90;;;;;;5011838;28;20181;-70
2022/02/28 00:21:51;;;;;;;4.43;4.13;;;0.00;99.90;;;;;;5011699;28;20172;-69
2022/02/28 00:24:18;;;;;;;5.97;4.43;;;0.00;99.90;;;;;;5011771;28;20639;-69
2022/02/28 00:26:44;;;;;;;4.90;3.43;;;0.00;99.90;;;;;;5012127;28;20293;-71
2022/02/28 00:29:09;;;;;;;7.03;4.63;;;0.00;99.90;;;;;;5013761;28;20490;-70
2022/02/28 00:31:35;;;;;;;7.30;4.60;;;0.00;99.90;;;;;;5013713;28;20172;-71
2022/02/28 00:34:00;;;;;;;4.03;2.57;;;0.00;99.90;;;;;;5014408;28;20175;-71
2022/02/28 00:36:26;;;;;;;8.90;4.70;;;0.10;99.90;;;;;;5016605;28;20220;-69
2022/02/28 00:38:52;;;;;;;12.83;5.00;;;0.10;99.90;;;;;;5016136;28;20180;-69
2022/02/28 00:41:18;;;;;;;7.53;5.50;;;0.00;99.90;;;;;;5015565;28;20172;-70
2022/02/28 00:43:43;;;;;;;3.83;2.93;;;0.10;99.90;;;;;;5015446;28;20422;-69
2022/02/28 00:46:09;;;;;;;6.63;3.87;;;0.10;99.90;;;;;;5015504;28;20744;-69
2022/02/28 00:48:35;;;;;;;9.97;5.70;;;0.20;99.90;;;;;;5015357;28;20666;-70
2022/02/28 00:51:01;;;;;;;5.43;3.37;;;0.20;99.90;;;;;;5015334;28;20175;-70
2022/02/28 00:53:26;;;;;;;6.23;3.33;;;0.20;99.90;;;;;;5015096;28;20898;-71
2022/02/28 00:55:52;;;;;;;5.17;4.30;;;0.20;99.90;;;;;;5015068;28;20691;-70
2022/02/28 00:58:17;;;;;;;7.93;3.60;;;0.30;99.90;;;;;;5015114;28;20168;-70
2022/02/28 01:00:43;;;;;;;5.73;5.23;;;0.30;99.90;;;;;;5015034;28;20177;-70
2022/02/28 01:03:08;;;;;;;6.10;3.70;;;0.30;99.90;;;;;;5015046;28;20214;-69
2022/02/28 01:05:34;;;;;;;5.63;4.27;;;0.30;99.90;;;;;;5014912;28;20200;-69
2022/02/28 01:08:00;;;;;;;8.83;5.97;;;0.30;99.90;;;;;;5014904;28;20183;-70
2022/02/28 01:10:25;;;;;;;7.80;4.53;;;0.40;99.90;;;;;;5015842;28;20412;-71
2022/02/28 01:12:52;;;;;;;10.90;6.53;;;0.40;99.90;;;;;;5015309;28;20172;-70
2022/02/28 01:15:20;;;;;;;8.93;3.57;;;0.40;99.90;;;;;;5014722;28;20704;-70
2022/02/28 01:17:45;;;;;;;5.07;4.07;;;0.40;99.90;;;;;;5015032;28;20403;-71
2022/02/28 01:20:12;;;;;;;8.13;4.80;;;0.40;99.90;;;;;;5015138;28;20518;-71
2022/02/28 01:22:39;;;;;;;7.17;4.80;;;0.40;99.90;;;;;;5015700;28;20169;-71
2022/02/28 01:25:05;;;;;;;5.60;3.30;;;0.40;99.90;;;;;;5015115;28;20487;-69
2022/02/28 01:27:31;;;;;;;15.17;6.73;;;0.40;99.90;;;;;;5014496;28;20411;-70
2022/02/28 01:29:57;;;;;;;6.87;4.47;;;0.50;99.90;;;;;;5014582;28;20457;-69
2022/02/28 01:32:22;;;;;;;7.77;3.73;;;0.50;99.90;;;;;;5014475;28;20164;-68
2022/02/28 01:34:48;;;;;;;4.67;4.10;;;0.50;99.90;;;;;;5014382;28;20171;-70
2022/02/28 01:37:13;;;;;;;6.33;3.77;;;0.50;99.90;;;;;;5014392;28;20188;-70
2022/02/28 01:39:44;;;;;;;16.60;6.57;;;0.50;99.90;;;;;;5014474;28;20578;-70
2022/02/28 01:42:10;;;;;;;10.30;5.23;;;0.60;99.90;;;;;;5014439;28;20168;-69
2022/02/28 01:44:35;;;;;;;17.60;6.23;;;0.50;99.90;;;;;;5013408;28;20925;-69
2022/02/28 01:47:02;;;;;;;11.60;5.70;;;0.60;99.90;;;;;;5005929;28;20460;-70
2022/02/28 01:49:28;;;;;;;7.37;5.40;;;0.60;99.90;;;;;;4994927;28;20208;-70
2022/02/28 01:51:53;;;;;;;6.80;5.30;;;0.60;99.90;;;;;;4995667;28;20402;-70
2022/02/28 01:54:19;;;;;;;8.33;5.17;;;0.60;99.90;;;;;;4994853;28;20416;-71
2022/02/28 01:56:44;;;;;;;9.33;5.20;;;0.60;99.90;;;;;;4977309;28;20203;-71
2022/02/28 01:59:11;;;;;;;12.23;6.03;;;0.70;99.90;;;;;;4994654;28;20227;-70
2022/02/28 02:01:37;;;;;;;9.73;3.90;;;0.60;99.90;;;;;;4994443;28;20193;-71
2022/02/28 02:04:04;;;;;;;10.33;5.53;;;0.50;99.90;;;;;;4994357;28;20491;-70
2022/02/28 02:06:29;;;;;;;10.50;4.23;;;0.50;99.90;;;;;;4993970;28;20201;-70
2022/02/28 02:08:55;;;;;;;7.07;5.07;;;0.50;99.90;;;;;;4994252;28;20452;-70
2022/02/28 02:11:20;;;;;;;4.87;4.47;;;0.60;99.90;;;;;;4994406;28;20256;-70
2022/02/28 02:13:48;;;;;;;6.60;5.80;;;0.60;99.90;;;;;;4994291;28;20176;-71
2022/02/28 02:16:14;;;;;;;5.83;4.00;;;0.60;99.90;;;;;;4994667;28;20193;-70
2022/02/28 02:18:46;;;;;;;7.17;4.90;;;0.60;99.90;;;;;;4997112;28;20435;-70
2022/02/28 02:21:14;;;;;;;13.30;6.37;;;0.60;99.90;;;;;;4994615;28;20412;-70
2022/02/28 02:23:42;;;;;;;4.60;2.70;;;0.60;99.90;;;;;;4994253;28;20417;-70
2022/02/28 02:26:13;;;;;;;7.93;4.90;;;0.70;99.90;;;;;;4993876;28;20443;-71
2022/02/28 02:28:42;;;;;;;7.57;4.60;;;0.70;99.90;;;;;;4993950;28;20451;-69
2022/02/28 02:31:09;;;;;;;5.37;3.90;;;0.60;99.90;;;;;;4993956;28;20783;-71
2022/02/28 02:33:34;;;;;;;5.43;4.67;;;0.60;99.90;;;;;;4994365;28;20930;-71
2022/02/28 02:36:03;;;;;;;6.70;4.37;;;0.50;99.90;;;;;;4994314;28;20424;-70
2022/02/28 02:38:32;;;;;;;7.00;5.93;;;0.50;99.90;;;;;;4994290;28;20173;-70
2022/02/28 02:40:57;;;;;;;6.70;5.40;;;0.60;99.90;;;;;;4993712;28;20490;-71
2022/02/28 02:43:23;;;;;;;6.60;2.63;;;0.60;99.90;;;;;;4993601;28;20447;-70
2022/02/28 02:45:49;;;;;;;6.30;3.47;;;0.70;99.90;;;;;;4976027;28;20577;-69
2022/02/28 02:48:17;;;;;;;6.50;4.00;;;0.70;99.90;;;;;;4994346;28;20179;-71
2022/02/28 02:50:43;;;;;;;8.97;5.13;;;0.60;99.90;;;;;;4994726;28;20327;-71
2022/02/28 02:53:10;;;;;;;8.63;5.97;;;0.60;99.90;;;;;;4995073;28;20404;-70
2022/02/28 02:55:36;;;;;;;6.53;3.40;;;0.70;99.90;;;;;;4993008;28;20452;-71
2022/02/28 02:58:03;;;;;;;6.97;4.63;;;0.60;99.90;;;;;;4993321;28;20420;-70
2022/02/28 03:00:29;;;;;;;6.13;3.77;;;0.50;99.90;;;;;;4993313;28;20459;-69
2022/02/28 03:02:55;;;;;;;8.20;4.63;;;0.40;99.90;;;;;;4993576;28;20424;-70
2022/02/28 03:05:20;;;;;;;10.07;5.50;;;0.40;99.90;;;;;;4993756;28;20632;-69
2022/02/28 03:07:46;;;;;;;14.87;5.57;;;0.40;99.90;;;;;;4994072;28;20696;-70
2022/02/28 03:10:11;;;;;;;9.87;4.83;;;0.40;99.90;;;;;;4992474;28;20204;-69
2022/02/28 03:12:39;;;;;;;13.43;5.10;;;0.40;99.90;;;;;;4976535;28;20173;-69
2022/02/28 03:15:04;;;;;;;6.60;4.03;;;0.50;99.90;;;;;;4992874;28;20251;-69
2022/02/28 03:17:30;;;;;;;8.80;4.73;;;0.50;99.90;;;;;;4993007;28;20849;-69
2022/02/28 03:19:55;;;;;;;8.37;5.87;;;0.50;99.90;;;;;;4993166;28;20196;-69
2022/02/28 03:22:21;;;;;;;6.37;4.70;;;0.50;99.90;;;;;;4992804;28;20243;-71
2022/02/28 03:24:46;;;;;;;8.30;5.30;;;0.50;99.90;;;;;;4993114;28;20185;-70
2022/02/28 03:27:11;;;;;;;15.10;6.63;;;0.50;99.90;;;;;;4993147;28;20196;-69
2022/02/28 03:29:37;;;;;;;6.00;3.03;;;0.50;99.90;;;;;;4993056;28;20201;-71
2022/02/28 03:32:03;;;;;;;7.43;4.87;;;0.50;99.90;;;;;;4992959;28;20515;-70
2022/02/28 03:34:29;;;;;;;9.60;5.97;;;0.50;99.90;;;;;;4992988;28;20173;-70
2022/02/28 03:36:55;;;;;;;10.30;6.17;;;0.50;99.90;;;;;;4992904;28;20234;-69
2022/02/28 03:39:20;;;;;;;6.80;5.33;;;0.50;99.90;;;;;;4993517;28;20770;-70
2022/02/28 03:41:46;;;;;;;7.83;5.40;;;0.50;99.90;;;;;;4993488;28;20674;-70
2022/02/28 03:44:11;;;;;;;7.63;5.10;;;0.50;99.90;;;;;;4993405;28;20177;-70
2022/02/28 03:46:37;;;;;;;6.97;4.80;;;0.40;99.90;;;;;;4975527;28;20451;-70
2022/02/28 03:49:02;;;;;;;7.63;3.87;;;0.50;99.90;;;;;;4993039;28;20263;-69
2022/02/28 03:51:28;;;;;;;13.27;6.77;;;0.50;99.90;;;;;;4992571;28;20256;-69
2022/02/28 03:53:53;;;;;;;6.10;5.13;;;0.50;99.90;;;;;;4992428;28;20640;-69
2022/02/28 03:56:19;;;;;;;7.17;6.07;;;0.50;99.90;;;;;;4992306;28;20184;-69
2022/02/28 03:58:45;;;;;;;7.50;5.67;;;0.50;99.90;;;;;;4992389;28;20165;-70
2022/02/28 04:01:10;;;;;;;12.67;7.57;;;0.50;99.90;;;;;;4992384;28;20177;-69
2022/02/28 04:03:36;;;;;;;8.30;3.80;;;0.50;99.90;;;;;;4992588;28;20833;-71
2022/02/28 04:06:01;;;;;;;6.17;4.83;;;0.40;99.90;;;;;;4974981;28;20227;-68
2022/02/28 04:08:27;;;;;;;12.03;5.33;;;0.40;99.90;;;;;;4993514;28;20212;-69
2022/02/28 04:10:53;;;;;;;9.07;4.97;;;0.40;99.90;;;;;;4996477;28;20177;-69
2022/02/28 04:13:18;;;;;;;13.17;8.70;;;0.40;99.90;;;;;;4996422;28;20404;-70
2022/02/28 04:15:44;;;;;;;11.73;5.90;;;0.40;99.90;;;;;;4996290;28;20185;-70
2022/02/28 04:18:09;;;;;;;5.50;4.40;;;0.50;99.90;;;;;;4996411;28;20192;-69
2022/02/28 04:20:35;;;;;;;6.23;4.53;;;0.40;99.90;;;;;;4996426;28;20231;-69
2022/02/28 04:23:00;;;;;;;4.60;3.23;;;0.40;99.90;;;;;;4996248;28;20177;-70
2022/02/28 04:25:26;;;;;;;11.13;5.60;;;0.50;99.90;;;;;;4996171;28;20276;-70
2022/02/28 04:27:51;;;;;;;12.67;6.20;;;0.50;99.90;;;;;;4996293;28;20169;-69
2022/02/28 04:30:18;;;;;;;4.40;3.57;;;0.50;99.90;;;;;;4996004;28;20292;-70
2022/02/28 04:32:44;;;;;;;10.23;5.20;;;0.60;99.90;;;;;;4996278;28;20523;-69
2022/02/28 04:35:09;;;;;;;7.77;5.10;;;0.40;99.90;;;;;;4996171;28;20408;-70
2022/02/28 04:37:35;;;;;;;12.77;6.53;;;0.30;99.90;;;;;;4996929;28;20212;-70
2022/02/28 04:40:02;;;;;;;5.90;3.77;;;0.40;99.90;;;;;;5013622;28;20192;-69
2022/02/28 04:42:27;;;;;;;3.37;3.17;;;0.30;99.90;;;;;;5015384;28;20420;-69
2022/02/28 04:44:52;;;;;;;7.43;6.13;;;0.30;99.90;;;;;;5015261;28;20461;-69
2022/02/28 04:47:18;;;;;;;8.07;4.83;;;0.30;99.90;;;;;;5015582;28;20219;-70
2022/02/28 04:49:43;;;;;;;8.10;4.07;;;0.20;99.90;;;;;;5016165;28;20200;-70
2022/02/28 04:52:09;;;;;;;17.70;5.83;;;0.10;99.90;;;;;;5015467;28;20171;-69
2022/02/28 04:54:34;;;;;;;10.37;7.30;;;0.10;99.90;;;;;;5015398;28;20517;-70
2022/02/28 04:57:00;;;;;;;7.60;4.33;;;0.10;99.90;;;;;;5015336;28;20227;-69
2022/02/28 04:59:26;;;;;;;9.67;3.20;;;0.10;99.90;;;;;;5015282;28;20531;-70
2022/02/28 05:01:51;;;;;;;4.63;4.07;;;0.10;99.90;;;;;;5015423;28;20168;-69
2022/02/28 05:04:16;;;;;;;4.20;3.70;;;0.10;99.90;;;;;;5015900;28;20230;-70
2022/02/28 05:06:42;;;;;;;11.77;5.80;;;0.10;99.90;;;;;;5016016;28;20234;-70
2022/02/28 05:09:07;;;;;;;14.13;6.60;;;0.10;99.90;;;;;;5016081;28;20184;-70
2022/02/28 05:11:33;;;;;;;10.23;5.80;;;0.10;99.90;;;;;;5016457;28;20353;-70
2022/02/28 05:13:59;;;;;;;6.43;5.73;;;0.10;99.90;;;;;;5015530;28;20573;-68
2022/02/28 05:16:25;;;;;;;9.40;7.03;;;0.20;99.90;;;;;;5014609;28;20203;-70
2022/02/28 05:18:51;;;;;;;7.67;5.87;;;0.20;99.90;;;;;;5014885;28;20414;-70
2022/02/28 05:21:16;;;;;;;15.97;7.30;;;0.20;99.90;;;;;;5014594;28;20415;-71
2022/02/28 05:23:42;;;;;;;12.40;6.80;;;0.10;99.90;;;;;;4996947;28;20177;-70
2022/02/28 05:26:08;;;;;;;20.37;6.83;;;0.10;99.90;;;;;;5015107;28;20203;-70
2022/02/28 05:28:33;;;;;;;8.07;7.33;;;0.10;99.90;;;;;;5016502;28;20568;-70
2022/02/28 05:30:59;;;;;;;8.03;5.90;;;0.10;99.90;;;;;;5015645;28;20215;-70
2022/02/28 05:33:24;;;;;;;12.00;7.30;;;0.00;99.90;;;;;;5015347;28;20520;-70
2022/02/28 05:35:49;;;;;;;8.40;4.37;;;0.00;99.90;;;;;;5016281;28;20382;-70
2022/02/28 05:38:15;;;;;;;7.73;6.60;;;-0.10;99.90;;;;;;5019155;28;20169;-71
2022/02/28 05:40:41;;;;;;;11.37;6.00;;;-0.10;99.90;;;;;;5016128;28;20250;-71
2022/02/28 05:43:06;;;;;;;11.27;4.73;;;-0.10;99.90;;;;;;5015081;28;20171;-70
2022/02/28 05:45:35;;;;;;;7.67;3.67;;;-0.10;99.90;;;;;;5014849;28;20486;-70
2022/02/28 05:48:02;;;;;;;7.67;6.20;;;-0.20;99.90;;;;;;5015205;28;20169;-70
2022/02/28 05:50:28;;;;;;;11.00;5.70;;;-0.10;99.90;;;;;;4997054;28;20459;-71
2022/02/28 05:52:53;;;;;;;16.00;5.80;;;-0.10;99.90;;;;;;5014813;28;20407;-70
2022/02/28 05:55:19;;;;;;;9.87;6.20;;;0.00;99.90;;;;;;5014838;28;20235;-70
2022/02/28 05:57:45;;;;;;;6.10;4.87;;;0.00;99.90;;;;;;5014826;28;20639;-70
2022/02/28 06:00:10;;;;;;;5.23;3.60;;;0.00;99.90;;;;;;4997431;28;20172;-70
2022/02/28 06:02:36;;;;;;;10.53;6.10;;;0.10;99.90;;;;;;5014701;28;20172;-71
2022/02/28 06:05:01;;;;;;;9.03;6.27;;;0.10;99.90;;;;;;5014161;28;20670;-72
2022/02/28 06:07:27;;;;;;;5.77;5.27;;;0.20;99.90;;;;;;5006845;28;20175;-71
2022/02/28 06:09:52;;;;;;;10.03;5.80;;;0.20;99.90;;;;;;5010415;28;20189;-70
2022/02/28 06:12:18;;;;;;;8.70;4.80;;;0.20;99.90;;;;;;5013462;28;20705;-71
2022/02/28 06:14:43;;;;;;;11.70;6.83;;;0.20;99.90;;;;;;5009809;28;20173;-70
2022/02/28 06:17:09;;;;;;;6.57;5.43;;;0.20;99.90;;;;;;5014337;28;20194;-70
2022/02/28 06:19:34;;;;;;;9.00;6.50;;;0.20;99.90;;;;;;5014397;28;20643;-70
2022/02/28 06:21:59;;;;;;;9.90;5.83;;;0.30;99.90;;;;;;5014017;28;20180;-70
2022/02/28 06:24:25;;;;;;;8.47;6.40;;;0.30;99.90;;;;;;5008958;28;20263;-70
2022/02/28 06:26:51;;;;;;;7.90;7.00;;;0.40;99.90;;;;;;5013496;28;20575;-70
2022/02/28 06:29:17;;;;;;;16.40;10.23;;;0.40;99.90;;;;;;5013714;28;20467;-71
2022/02/28 06:31:43;;;;;;;11.00;6.73;;;0.40;99.90;;;;;;5013002;28;20835;-69
2022/02/28 06:34:09;;;;;;;10.67;6.37;;;0.60;99.90;;;;;;5013399;28;20180;-69
2022/02/28 06:36:35;;;;;;;17.00;6.10;;;0.60;99.90;;;;;;5013322;28;20196;-69
2022/02/28 06:39:01;;;;;;;9.80;5.80;;;0.70;99.90;;;;;;4995676;28;20473;-69
2022/02/28 06:41:26;;;;;;;5.50;5.00;;;0.60;99.90;;;;;;5008734;28;20647;-69
2022/02/28 06:43:52;;;;;;;15.67;6.60;;;0.60;99.90;;;;;;5013992;28;20207;-69
2022/02/28 06:46:17;;;;;;;15.37;7.50;;;0.60;99.90;;;;;;5033320;22;20227;-68
2022/02/28 06:48:43;;;;;;;7.50;6.17;;;0.70;99.90;;;;;;4993247;28;20215;-66
2022/02/28 06:51:08;;;;;;;9.10;5.67;;;0.90;99.90;;;;;;4993482;28;20201;-66
2022/02/28 06:53:34;;;;;;;10.40;6.90;;;0.80;99.90;;;;;;4993397;28;20997;-66
2022/02/28 06:55:59;;;;;;;9.03;6.17;;;0.90;99.90;;;;;;4993048;28;20189;-66
2022/02/28 06:58:25;;;;;;;10.20;6.30;;;0.90;99.90;;;;;;4993318;28;20851;-67
2022/02/28 07:00:51;;;;;;;21.57;5.30;;;0.90;99.90;;;;;;4993492;28;20161;-66
2022/02/28 07:03:17;;;;;;;9.93;7.80;;;0.90;99.90;;;;;;4993093;28;20176;-67
2022/02/28 07:05:47;;;;;;;9.40;6.27;;;0.90;99.90;;;;;;4993424;28;20400;-67
2022/02/28 07:08:15;;;;;;;8.00;4.57;;;0.90;99.90;;;;;;4993122;28;20268;-66
2022/02/28 07:10:42;;;;;;;11.10;5.43;;;0.90;99.90;;;;;;4993186;28;20419;-66
2022/02/28 07:13:08;;;;;;;12.47;5.37;;;0.90;99.90;;;;;;4992982;28;20408;-67
2022/02/28 07:15:33;;;;;;;9.67;5.83;;;0.90;99.90;;;;;;4992705;28;20978;-66
2022/02/28 07:18:00;;;;;;;9.40;7.37;;;1.10;99.90;;;;;;4991106;28;20277;-67
2022/02/28 07:20:26;;;;;;;22.80;10.37;;;1.00;99.90;;;;;;4981696;28;20647;-66
2022/02/28 07:22:51;;;;;;;11.80;6.77;;;1.00;99.90;;;;;;4992956;28;20400;-67
2022/02/28 07:25:17;;;;;;;8.43;7.47;;;1.00;99.90;;;;;;4987265;28;20204;-66
2022/02/28 07:27:42;;;;;;;13.37;6.30;;;1.00;99.90;;;;;;4992793;28;20589;-68
2022/02/28 07:30:08;;;;;;;6.37;5.77;;;1.10;99.90;;;;;;4992998;28;20201;-67
2022/02/28 07:32:34;;;;;;;19.30;7.17;;;1.00;99.90;;;;;;4993135;28;20228;-67
2022/02/28 07:34:59;;;;;;;8.27;5.83;;;1.10;99.90;;;;;;4993645;28;20420;-68
2022/02/28 07:37:25;;;;;;;8.87;5.97;;;1.10;99.90;;;;;;4993991;28;20193;-68
2022/02/28 07:39:50;;;;;;;7.83;7.07;;;1.10;99.90;;;;;;4994272;28;20509;-68
2022/02/28 07:42:16;;;;;;;14.67;7.27;;;1.20;99.90;;;;;;4993801;28;20181;-68
2022/02/28 07:44:41;;;;;;;8.27;5.07;;;1.30;99.90;;;;;;4993956;28;20650;-69
2022/02/28 07:47:07;;;;;;;26.53;11.70;;;1.40;99.90;;;;;;4993750;28;20223;-67
2022/02/28 07:49:35;;;;;;;10.03;6.30;;;1.40;99.90;;;;;;4993809;28;20534;-67
2022/02/28 07:52:02;;;;;;;11.70;6.63;;;1.50;99.90;;;;;;4995770;28;20181;-67
2022/02/28 07:54:27;;;;;;;15.53;8.93;;;1.60;99.90;;;;;;4995199;28;20420;-67
2022/02/28 07:56:53;;;;;;;12.77;7.30;;;1.70;99.90;;;;;;4992702;28;20929;-66
2022/02/28 07:59:18;;;;;;;10.93;6.00;;;1.60;99.90;;;;;;4992223;28;20252;-66
2022/02/28 08:01:44;;;;;;;13.90;7.90;;;1.50;99.90;;;;;;4992083;28;20184;-66
2022/02/28 08:04:09;;;;;;;13.27;6.93;;;1.40;99.90;;;;;;4992143;28;20191;-66
2022/02/28 08:06:35;;;;;;;10.27;5.50;;;1.60;99.90;;;;;;4992285;28;20201;-67
2022/02/28 08:09:00;;;;;;;14.40;6.77;;;1.70;99.90;;;;;;4992138;28;20200;-66
2022/02/28 08:11:26;;;;;;;7.80;5.63;;;1.70;99.90;;;;;;4992454;28;20181;-66
2022/02/28 08:13:51;;;;;;;11.27;6.70;;;1.70;99.90;;;;;;4991987;28;20486;-66
2022/02/28 08:16:16;;;;;;;20.90;7.30;;;1.70;99.90;;;;;;4974580;28;20262;-66
2022/02/28 08:18:42;;;;;;;13.00;9.07;;;1.70;99.90;;;;;;4992193;28;20248;-66
2022/02/28 08:21:08;;;;;;;13.57;7.50;;;2.00;99.90;;;;;;4992174;28;20188;-66
2022/02/28 08:23:33;;;;;;;9.57;5.47;;;2.10;99.90;;;;;;4991854;28;20188;-66
2022/02/28 08:25:59;;;;;;;9.57;6.50;;;2.00;99.90;;;;;;4991812;28;20189;-66
2022/02/28 08:28:25;;;;;;;14.13;8.47;;;2.50;99.90;;;;;;4992129;28;20169;-66
2022/02/28 08:30:51;;;;;;;8.27;6.43;;;2.80;99.90;;;;;;4992136;28;20169;-66
2022/02/28 08:33:16;;;;;;;13.93;8.47;;;2.90;99.90;;;;;;4992026;28;20794;-67
2022/02/28 08:35:42;;;;;;;17.40;9.77;;;3.40;99.90;;;;;;4991897;28;20401;-66
2022/02/28 08:38:07;;;;;;;11.90;8.07;;;4.30;99.90;;;;;;4991900;28;20697;-66
2022/02/28 08:40:33;;;;;;;10.03;6.57;;;4.60;99.90;;;;;;4992075;28;20173;-66
2022/02/28 08:42:59;;;;;;;12.27;8.10;;;5.20;99.90;;;;;;4991931;28;20181;-66
2022/02/28 08:45:24;;;;;;;15.60;5.47;;;5.60;99.90;;;;;;4991676;28;20236;-66
2022/02/28 08:47:50;;;;;;;9.30;5.67;;;5.50;99.90;;;;;;4991378;28;20699;-66
2022/02/28 08:50:16;;;;;;;13.47;6.73;;;5.10;99.90;;;;;;4991477;28;20207;-66
2022/02/28 08:52:43;;;;;;;10.10;6.00;;;4.80;99.90;;;;;;4991487;28;20642;-66
2022/02/28 08:55:09;;;;;;;10.40;7.13;;;5.30;99.90;;;;;;4993978;28;20859;-69
2022/02/28 08:57:36;;;;;;;13.63;6.97;;;6.40;99.90;;;;;;4995722;28;20490;-66
2022/02/28 09:00:06;;;;;;;16.50;6.57;;;7.20;99.90;;;;;;4995493;28;20451;-66
2022/02/28 09:02:31;;;;;;;10.90;7.20;;;7.60;99.90;;;;;;4995318;28;20443;-66
2022/02/28 09:04:57;;;;;;;13.83;6.90;;;7.30;99.90;;;;;;4995213;28;20423;-66
2022/02/28 09:07:22;;;;;;;9.57;6.03;;;7.10;99.90;;;;;;4995157;28;20219;-67
2022/02/28 09:09:48;;;;;;;12.50;6.70;;;7.20;99.90;;;;;;4995141;28;20271;-67
2022/02/28 09:12:14;;;;;;;21.30;7.97;;;6.30;99.90;;;;;;4977458;28;20568;-67
2022/02/28 09:14:40;;;;;;;11.20;8.70;;;6.50;99.90;;;;;;4995033;28;20169;-67
2022/02/28 09:17:06;;;;;;;10.17;7.30;;;5.90;99.90;;;;;;4995081;28;20420;-65
2022/02/28 09:19:32;;;;;;;9.97;6.37;;;6.00;99.90;;;;;;4995214;28;20415;-65
2022/02/28 09:21:57;;;;;;;12.50;6.50;;;6.10;99.90;;;;;;4994838;28;20416;-66
2022/02/28 09:24:23;;;;;;;12.40;7.00;;;6.10;99.90;;;;;;4994967;28;20175;-67
2022/02/28 09:26:49;;;;;;;13.97;6.97;;;6.90;99.90;;;;;;4994816;28;20200;-66
2022/02/28 09:29:14;;;;;;;14.57;7.77;;;7.50;99.90;;;;;;4994795;28;20193;-66
2022/02/28 09:31:40;;;;;;;19.20;8.57;;;7.20;99.90;;;;;;4994858;28;20408;-66
2022/02/28 09:34:05;;;;;;;20.60;10.10;;;7.90;99.90;;;;;;4994738;28;20165;-66
2022/02/28 09:36:31;;;;;;;12.50;8.00;;;7.00;99.90;;;;;;4994258;28;20630;-67
2022/02/28 09:38:58;;;;;;;12.60;7.70;;;6.90;99.90;;;;;;4994717;28;20173;-67
2022/02/28 09:41:24;;;;;;;16.53;8.70;;;7.00;99.90;;;;;;4994633;28;20559;-66
2022/02/28 09:43:50;;;;;;;15.57;8.00;;;7.10;99.90;;;;;;4994389;28;20416;-67
2022/02/28 09:46:17;;;;;;;14.03;8.03;;;6.50;99.90;;;;;;4994024;28;20552;-67
2022/02/28 09:48:44;;;;;;;10.97;7.50;;;6.20;99.90;;;;;;4994332;28;20189;-67
2022/02/28 09:51:10;;;;;;;14.40;8.03;;;6.00;99.90;;;;;;4994108;28;20412;-67
2022/02/28 09:53:35;;;;;;;12.83;7.53;;;6.00;99.90;;;;;;4994494;28;20476;-67
2022/02/28 09:56:02;;;;;;;13.33;7.60;;;5.90;99.90;;;;;;4993759;28;20261;-67
2022/02/28 09:58:30;;;;;;;11.07;6.40;;;6.00;99.90;;;;;;4994930;28;20191;-68
2022/02/28 10:00:57;;;;;;;13.53;6.77;;;5.40;99.90;;;;;;4995103;28;20901;-65
2022/02/28 10:03:27;;;;;;;15.20;7.40;;;5.20;99.90;;;;;;4996144;28;20458;-67
2022/02/28 10:06:01;;;;;;;11.80;7.10;;;5.00;99.90;;;;;;4978885;28;20883;-66
2022/02/28 10:08:48;;;;;;;11.47;6.70;;;5.20;99.90;;;;;;4997392;28;20415;-67
2022/02/28 10:11:30;;;;;;;16.07;7.73;;;4.60;99.90;;;;;;4994259;28;20409;-66
2022/02/28 10:13:58;;;;;;;15.97;10.33;;;4.40;99.90;;;;;;4993731;28;20408;-66
2022/02/28 10:16:32;;;;;;;14.50;8.67;;;4.30;99.90;;;;;;4993385;28;20440;-66
2022/02/28 10:18:58;;;;;;;12.57;7.97;;;4.00;99.90;;;;;;4993249;28;20476;-66
2022/02/28 10:21:48;;;;;;;18.60;8.60;;;4.10;99.90;;;;;;4993866;28;20522;-66
2022/02/28 10:24:28;;;;;;;11.20;7.77;;;4.30;99.90;;;;;;4973566;28;20394;-66
2022/02/28 10:26:57;;;;;;;20.30;12.77;;;4.40;99.90;;;;;;4981627;28;20432;-68
2022/02/28 10:29:24;;;;;;;11.43;7.93;;;4.30;99.90;;;;;;4993679;28;20463;-67
2022/02/28 10:31:50;;;;;;;19.20;11.70;;;4.00;99.90;;;;;;4994097;28;20451;-66
2022/02/28 10:34:24;;;;;;;16.13;9.40;;;3.90;99.90;;;;;;4993832;28;20412;-66
2022/02/28 10:36:58;;;;;;;15.07;9.07;;;3.80;99.90;;;;;;4993385;28;20185;-67
2022/02/28 10:39:26;;;;;;;12.20;7.47;;;3.60;99.90;;;;;;4993025;28;20411;-67
2022/02/28 10:41:55;;;;;;;19.97;9.20;;;3.90;99.90;;;;;;4993384;28;20414;-67
2022/02/28 10:44:22;;;;;;;12.37;8.63;;;3.90;99.90;;;;;;4993819;28;20404;-67
2022/02/28 10:46:49;;;;;;;10.77;7.27;;;3.90;99.90;;;;;;4993857;28;20456;-67
2022/02/28 10:49:21;;;;;;;13.80;8.93;;;4.00;99.90;;;;;;4993747;28;20513;-67
2022/02/28 10:51:57;;;;;;;15.13;7.00;;;3.80;99.90;;;;;;4993885;28;20400;-67
2022/02/28 10:54:27;;;;;;;17.40;7.87;;;3.90;99.90;;;;;;4993680;28;20833;-68
2022/02/28 10:57:06;;;;;;;10.00;5.67;;;3.60;99.90;;;;;;4993310;28;20429;-67
2022/02/28 10:59:52;;;;;;;18.77;10.83;;;3.70;99.90;;;;;;4993426;28;20451;-68
2022/02/28 11:02:33;;;;;;;13.23;7.57;;;3.60;99.90;;;;;;4993327;28;20404;-66
2022/02/28 11:05:17;;;;;;;11.53;7.00;;;3.60;99.90;;;;;;4993072;28;20420;-66
2022/02/28 11:07:54;;;;;;;12.07;8.37;;;3.60;99.90;;;;;;4993088;28;20438;-66
2022/02/28 11:10:21;;;;;;;10.67;6.50;;;3.80;99.90;;;;;;4993247;28;20514;-67
2022/02/28 11:12:47;;;;;;;21.70;8.20;;;4.10;99.90;;;;;;4993136;28;20913;-67
2022/02/28 11:15:19;;;;;;;20.87;8.43;;;4.10;99.90;;;;;;4993018;28;20420;-67
2022/02/28 11:17:46;;;;;;;15.40;7.00;;;3.90;99.90;;;;;;4993074;28;20432;-67
2022/02/28 11:20:14;;;;;;;10.53;7.50;;;3.90;99.90;;;;;;4993311;28;20487;-67
2022/02/28 11:22:42;;;;;;;15.20;9.23;;;4.10;99.90;;;;;;4992823;28;20409;-66
2022/02/28 11:25:10;;;;;;;13.30;8.43;;;3.90;99.90;;;;;;4993191;28;20766;-66
2022/02/28 11:27:38;;;;;;;14.83;7.23;;;3.90;99.90;;;;;;4992863;28;21051;-67
2022/02/28 11:30:07;;;;;;;10.00;6.13;;;4.10;99.90;;;;;;4992815;28;20621;-66
2022/02/28 11:32:33;;;;;;;9.50;6.50;;;4.00;99.90;;;;;;4993177;28;20420;-67
2022/02/28 11:35:50;;;;;;;12.97;8.40;;;4.00;99.90;;;;;;4993399;28;20416;-67
2022/02/28 11:38:19;;;;;;;11.63;5.70;;;4.20;99.90;;;;;;4939729;28;20451;-67
2022/02/28 11:40:47;;;;;;;6.40;4.57;;;4.20;99.90;;;;;;4993710;28;20494;-67
2022/02/28 11:43:17;;;;;;;8.07;4.63;;;4.40;99.90;;;;;;4993504;28;20793;-67
2022/02/28 11:45:53;;;;;;;10.33;8.80;;;4.40;99.90;;;;;;4993458;28;20895;-67
2022/02/28 11:48:24;;;;;;;9.63;5.80;;;4.40;99.90;;;;;;4994178;28;20461;-67
2022/02/28 11:51:00;;;;;;;6.23;5.10;;;4.40;99.90;;;;;;4994424;28;20423;-67
2022/02/28 11:53:58;;;;;;;13.03;8.60;;;4.60;99.90;;;;;;4992927;28;20399;-67
2022/02/28 11:56:23;;;;;;;6.80;5.13;;;4.80;99.90;;;;;;4991274;28;20451;-66
2022/02/28 11:58:50;;;;;;;6.47;5.10;;;4.70;99.90;;;;;;4992201;28;20462;-67
2022/02/28 12:01:18;;;;;;;11.23;5.00;;;4.70;99.90;;;;;;4992295;28;20268;-67
2022/02/28 12:04:10;;;;;;;6.80;4.70;;;4.60;99.90;;;;;;4991859;28;20547;-67
2022/02/28 12:07:05;;;;;;;9.13;5.07;;;4.80;99.90;;;;;;4992064;28;20443;-66
2022/02/28 12:09:37;;;;;;;11.50;4.20;;;4.90;99.90;;;;;;4990148;28;20879;-66
2022/02/28 12:12:29;;;;;;;13.13;5.90;;;5.00;99.90;;;;;;4992317;28;20495;-66
2022/02/28 12:14:57;;;;;;;9.77;5.83;;;5.10;99.90;;;;;;4991920;28;20410;-67
2022/02/28 12:17:44;;;;;;;7.40;4.17;;;5.20;99.90;;;;;;4992419;28;20424;-66
2022/02/28 12:20:19;;;;;;;7.67;4.10;;;5.10;99.90;;;;;;4992887;28;20494;-67
2022/02/28 12:23:09;;;;;;;5.43;4.30;;;4.90;99.90;;;;;;4992605;28;20892;-67
2022/02/28 12:25:45;;;;;;;6.50;4.03;;;4.90;99.90;;;;;;4992622;28;20452;-67
2022/02/28 12:28:29;;;;;;;5.90;4.70;;;5.00;99.90;;;;;;4992363;28;20481;-68
2022/02/28 12:31:02;;;;;;;6.33;4.53;;;5.00;99.90;;;;;;4995287;28;20470;-67
2022/02/28 12:33:33;;;;;;;5.20;4.50;;;5.10;99.90;;;;;;4986783;28;20887;-67
2022/02/28 12:36:08;;;;;;;11.20;5.17;;;5.30;99.90;;;;;;4994438;28;20412;-68
2022/02/28 12:38:37;;;;;;;10.63;5.53;;;5.40;99.90;;;;;;4995875;28;20400;-67
2022/02/28 12:41:10;;;;;;;6.47;3.57;;;5.40;99.90;;;;;;4995816;28;20420;-67
2022/02/28 12:43:36;;;;;;;4.57;4.17;;;5.50;99.90;;;;;;4995780;28;20408;-67
2022/02/28 12:46:04;;;;;;;8.40;4.37;;;5.60;99.90;;;;;;4995480;28;20533;-67
2022/02/28 12:48:30;;;;;;;4.80;3.27;;;5.60;99.90;;;;;;5041225;22;20492;-72
2022/02/28 12:50:59;;;;;;;9.40;3.03;;;5.70;99.90;;;;;;5034844;28;20414;-72
2022/02/28 12:53:26;;;;;;;6.13;3.53;;;5.80;99.90;;;;;;5034726;28;20409;-73
2022/02/28 12:55:55;;;;;;;5.47;3.77;;;5.70;99.90;;;;;;5034770;28;20407;-73